sensor_id;sensor_type;location;lat;lon;timestamp;temperature;humidity
1468;DHT22;727;48.892;9.544;2023-06-10T00:02:02;18.00;89.40
1468;DHT22;727;48.892;9.544;2023-06-10T00:04:29;17.90;90.00
1468;DHT22;727;48.892;9.544;2023-06-10T00:06:56;17.90;90.10
1468;DHT22;727;48.892;9.544;2023-06-10T00:09:23;17.80;90.10
1468;DHT22;727;48.892;9.544;2023-06-10T00:11:50;17.80;90.30
1468;DHT22;727;48.892;9.544;2023-06-10T00:14:17;17.60;90.40
1468;DHT22;727;48.892;9.544;2023-06-10T00:16:45;17.60;90.60
1468;DHT22;727;48.892;9.544;2023-06-10T00:19:11;17.50;90.70
1468;DHT22;727;48.892;9.544;2023-06-10T00:21:40;17.40;90.90
1468;DHT22;727;48.892;9.544;2023-06-10T00:24:10;17.30;91.20
1468;DHT22;727;48.892;9.544;2023-06-10T00:26:38;17.20;91.40
1468;DHT22;727;48.892;9.544;2023-06-10T00:29:05;17.10;91.60
1468;DHT22;727;48.892;9.544;2023-06-10T00:31:33;17.00;91.90
1468;DHT22;727;48.892;9.544;2023-06-10T00:34:01;16.90;92.20
1468;DHT22;727;48.892;9.544;2023-06-10T00:36:29;16.90;92.40
1468;DHT22;727;48.892;9.544;2023-06-10T00:38:55;16.90;92.60
1468;DHT22;727;48.892;9.544;2023-06-10T00:41:22;16.80;92.70
1468;DHT22;727;48.892;9.544;2023-06-10T00:43:49;16.80;93.20
1468;DHT22;727;48.892;9.544;2023-06-10T00:46:16;16.80;93.00
1468;DHT22;727;48.892;9.544;2023-06-10T00:48:44;16.70;93.10
1468;DHT22;727;48.892;9.544;2023-06-10T00:51:14;16.70;93.30
1468;DHT22;727;48.892;9.544;2023-06-10T00:53:42;16.70;93.30
1468;DHT22;727;48.892;9.544;2023-06-10T00:56:09;16.70;93.50
1468;DHT22;727;48.892;9.544;2023-06-10T00:58:36;16.60;93.60
1468;DHT22;727;48.892;9.544;2023-06-10T01:01:03;16.60;93.90
1468;DHT22;727;48.892;9.544;2023-06-10T01:03:30;16.50;94.10
1468;DHT22;727;48.892;9.544;2023-06-10T01:06:08;16.50;94.20
1468;DHT22;727;48.892;9.544;2023-06-10T01:08:43;16.50;94.00
1468;DHT22;727;48.892;9.544;2023-06-10T01:11:21;16.60;94.30
1468;DHT22;727;48.892;9.544;2023-06-10T01:13:50;16.50;94.50
1468;DHT22;727;48.892;9.544;2023-06-10T01:16:19;16.40;94.60
1468;DHT22;727;48.892;9.544;2023-06-10T01:18:46;16.30;94.70
1468;DHT22;727;48.892;9.544;2023-06-10T01:21:19;16.20;95.00
1468;DHT22;727;48.892;9.544;2023-06-10T01:23:46;16.10;95.30
1468;DHT22;727;48.892;9.544;2023-06-10T01:26:14;16.20;95.70
1468;DHT22;727;48.892;9.544;2023-06-10T01:28:47;16.10;95.70
1468;DHT22;727;48.892;9.544;2023-06-10T01:31:17;16.10;95.90
1468;DHT22;727;48.892;9.544;2023-06-10T01:33:49;16.10;96.10
1468;DHT22;727;48.892;9.544;2023-06-10T01:36:19;16.10;96.50
1468;DHT22;727;48.892;9.544;2023-06-10T01:38:48;16.10;96.20
1468;DHT22;727;48.892;9.544;2023-06-10T01:41:17;16.20;96.20
1468;DHT22;727;48.892;9.544;2023-06-10T01:43:45;16.30;96.20
1468;DHT22;727;48.892;9.544;2023-06-10T01:46:14;16.40;96.20
1468;DHT22;727;48.892;9.544;2023-06-10T01:48:45;16.30;96.10
1468;DHT22;727;48.892;9.544;2023-06-10T01:51:11;16.30;96.30
1468;DHT22;727;48.892;9.544;2023-06-10T01:53:39;16.30;96.40
1468;DHT22;727;48.892;9.544;2023-06-10T01:56:06;16.20;96.60
1468;DHT22;727;48.892;9.544;2023-06-10T01:58:33;16.20;96.80
1468;DHT22;727;48.892;9.544;2023-06-10T02:01:00;16.20;96.90
1468;DHT22;727;48.892;9.544;2023-06-10T02:03:26;16.20;97.00
1468;DHT22;727;48.892;9.544;2023-06-10T02:05:53;16.10;97.10
1468;DHT22;727;48.892;9.544;2023-06-10T02:08:20;16.10;97.30
1468;DHT22;727;48.892;9.544;2023-06-10T02:10:48;16.10;97.80
1468;DHT22;727;48.892;9.544;2023-06-10T02:13:15;16.10;97.50
1468;DHT22;727;48.892;9.544;2023-06-10T02:15:41;16.10;97.70
1468;DHT22;727;48.892;9.544;2023-06-10T02:18:08;16.10;97.80
1468;DHT22;727;48.892;9.544;2023-06-10T02:20:37;16.10;98.00
1468;DHT22;727;48.892;9.544;2023-06-10T02:23:04;16.10;98.10
1468;DHT22;727;48.892;9.544;2023-06-10T02:25:30;16.00;98.30
1468;DHT22;727;48.892;9.544;2023-06-10T02:27:59;16.00;98.60
1468;DHT22;727;48.892;9.544;2023-06-10T02:30:26;15.90;98.80
1468;DHT22;727;48.892;9.544;2023-06-10T02:32:53;15.90;99.00
1468;DHT22;727;48.892;9.544;2023-06-10T02:35:21;15.90;99.30
1468;DHT22;727;48.892;9.544;2023-06-10T02:37:49;15.90;99.40
1468;DHT22;727;48.892;9.544;2023-06-10T02:40:16;15.80;99.60
1468;DHT22;727;48.892;9.544;2023-06-10T02:42:42;15.80;99.80
1468;DHT22;727;48.892;9.544;2023-06-10T02:45:11;15.80;99.90
1468;DHT22;727;48.892;9.544;2023-06-10T02:47:38;15.80;99.90
1468;DHT22;727;48.892;9.544;2023-06-10T02:50:05;15.80;99.90
1468;DHT22;727;48.892;9.544;2023-06-10T02:52:32;15.80;99.90
1468;DHT22;727;48.892;9.544;2023-06-10T02:54:59;15.70;99.90
1468;DHT22;727;48.892;9.544;2023-06-10T02:57:26;15.70;99.90
1468;DHT22;727;48.892;9.544;2023-06-10T02:59:53;15.70;99.90
1468;DHT22;727;48.892;9.544;2023-06-10T03:02:21;15.70;99.90
1468;DHT22;727;48.892;9.544;2023-06-10T03:04:54;15.80;99.90
1468;DHT22;727;48.892;9.544;2023-06-10T03:07:21;15.70;99.90
1468;DHT22;727;48.892;9.544;2023-06-10T03:09:48;15.70;99.90
1468;DHT22;727;48.892;9.544;2023-06-10T03:12:15;15.80;99.90
1468;DHT22;727;48.892;9.544;2023-06-10T03:14:42;15.80;99.90
1468;DHT22;727;48.892;9.544;2023-06-10T03:17:08;15.80;99.90
1468;DHT22;727;48.892;9.544;2023-06-10T03:19:36;15.80;99.90
1468;DHT22;727;48.892;9.544;2023-06-10T03:22:09;15.80;99.90
1468;DHT22;727;48.892;9.544;2023-06-10T03:24:36;15.80;99.90
1468;DHT22;727;48.892;9.544;2023-06-10T03:27:06;15.80;99.90
1468;DHT22;727;48.892;9.544;2023-06-10T03:29:33;15.90;99.90
1468;DHT22;727;48.892;9.544;2023-06-10T03:32:00;15.90;99.90
1468;DHT22;727;48.892;9.544;2023-06-10T03:34:26;15.90;99.90
1468;DHT22;727;48.892;9.544;2023-06-10T03:36:55;15.90;99.90
1468;DHT22;727;48.892;9.544;2023-06-10T03:39:21;15.90;99.90
1468;DHT22;727;48.892;9.544;2023-06-10T03:41:49;15.90;99.90
1468;DHT22;727;48.892;9.544;2023-06-10T03:44:16;16.00;99.90
1468;DHT22;727;48.892;9.544;2023-06-10T03:46:43;16.00;99.90
1468;DHT22;727;48.892;9.544;2023-06-10T03:49:11;16.10;99.90
1468;DHT22;727;48.892;9.544;2023-06-10T03:51:37;16.10;99.90
1468;DHT22;727;48.892;9.544;2023-06-10T03:54:07;16.20;99.90
1468;DHT22;727;48.892;9.544;2023-06-10T03:56:35;16.20;99.90
1468;DHT22;727;48.892;9.544;2023-06-10T03:59:02;16.30;99.90
1468;DHT22;727;48.892;9.544;2023-06-10T04:01:28;16.30;99.90
1468;DHT22;727;48.892;9.544;2023-06-10T04:03:56;16.20;99.90
1468;DHT22;727;48.892;9.544;2023-06-10T04:06:23;16.20;99.90
1468;DHT22;727;48.892;9.544;2023-06-10T04:08:51;16.20;99.90
1468;DHT22;727;48.892;9.544;2023-06-10T04:11:19;16.20;99.90
1468;DHT22;727;48.892;9.544;2023-06-10T04:13:46;16.20;99.90
1468;DHT22;727;48.892;9.544;2023-06-10T04:16:13;16.20;99.90
1468;DHT22;727;48.892;9.544;2023-06-10T04:18:39;16.30;99.90
1468;DHT22;727;48.892;9.544;2023-06-10T04:21:07;16.40;99.90
1468;DHT22;727;48.892;9.544;2023-06-10T04:23:34;16.50;99.90
1468;DHT22;727;48.892;9.544;2023-06-10T04:26:02;16.60;99.90
1468;DHT22;727;48.892;9.544;2023-06-10T04:28:30;16.70;99.90
1468;DHT22;727;48.892;9.544;2023-06-10T04:30:57;16.90;99.90
1468;DHT22;727;48.892;9.544;2023-06-10T04:33:24;17.00;99.90
1468;DHT22;727;48.892;9.544;2023-06-10T04:35:51;17.10;99.90
1468;DHT22;727;48.892;9.544;2023-06-10T04:38:17;17.30;99.90
1468;DHT22;727;48.892;9.544;2023-06-10T04:40:44;17.60;99.90
1468;DHT22;727;48.892;9.544;2023-06-10T04:43:11;18.60;99.90
1468;DHT22;727;48.892;9.544;2023-06-10T04:45:39;20.20;97.70
1468;DHT22;727;48.892;9.544;2023-06-10T04:48:10;21.60;94.30
1468;DHT22;727;48.892;9.544;2023-06-10T04:50:37;22.90;91.90
1468;DHT22;727;48.892;9.544;2023-06-10T04:53:04;23.90;88.20
1468;DHT22;727;48.892;9.544;2023-06-10T04:55:31;24.90;84.80
1468;DHT22;727;48.892;9.544;2023-06-10T04:57:58;25.40;81.30
1468;DHT22;727;48.892;9.544;2023-06-10T05:00:25;26.00;77.20
1468;DHT22;727;48.892;9.544;2023-06-10T05:02:53;26.30;76.00
1468;DHT22;727;48.892;9.544;2023-06-10T05:05:21;26.10;75.20
1468;DHT22;727;48.892;9.544;2023-06-10T05:07:48;26.40;74.10
1468;DHT22;727;48.892;9.544;2023-06-10T05:10:15;27.10;72.40
1468;DHT22;727;48.892;9.544;2023-06-10T05:12:42;27.10;71.10
1468;DHT22;727;48.892;9.544;2023-06-10T05:15:09;27.60;69.50
1468;DHT22;727;48.892;9.544;2023-06-10T05:17:36;27.80;68.70
1468;DHT22;727;48.892;9.544;2023-06-10T05:20:05;28.40;67.60
1468;DHT22;727;48.892;9.544;2023-06-10T05:22:33;28.50;66.90
1468;DHT22;727;48.892;9.544;2023-06-10T05:25:02;28.80;66.20
1468;DHT22;727;48.892;9.544;2023-06-10T05:27:28;29.10;64.00
1468;DHT22;727;48.892;9.544;2023-06-10T05:29:55;28.90;64.50
1468;DHT22;727;48.892;9.544;2023-06-10T05:32:22;29.20;63.10
1468;DHT22;727;48.892;9.544;2023-06-10T05:34:49;29.70;62.80
1468;DHT22;727;48.892;9.544;2023-06-10T05:37:17;29.90;60.60
1468;DHT22;727;48.892;9.544;2023-06-10T05:39:43;29.50;60.80
1468;DHT22;727;48.892;9.544;2023-06-10T05:42:10;29.60;60.80
1468;DHT22;727;48.892;9.544;2023-06-10T05:44:37;29.50;60.60
1468;DHT22;727;48.892;9.544;2023-06-10T05:47:04;29.40;61.20
1468;DHT22;727;48.892;9.544;2023-06-10T05:49:32;29.50;60.60
1468;DHT22;727;48.892;9.544;2023-06-10T05:51:59;29.30;61.40
1468;DHT22;727;48.892;9.544;2023-06-10T05:54:27;29.20;61.40
1468;DHT22;727;48.892;9.544;2023-06-10T05:56:54;29.30;61.50
1468;DHT22;727;48.892;9.544;2023-06-10T05:59:21;29.00;62.00
1468;DHT22;727;48.892;9.544;2023-06-10T06:01:48;28.30;63.30
1468;DHT22;727;48.892;9.544;2023-06-10T06:04:15;27.80;65.00
1468;DHT22;727;48.892;9.544;2023-06-10T06:06:42;27.30;67.00
1468;DHT22;727;48.892;9.544;2023-06-10T06:09:09;26.70;68.40
1468;DHT22;727;48.892;9.544;2023-06-10T06:11:37;26.50;69.20
1468;DHT22;727;48.892;9.544;2023-06-10T06:14:04;26.20;69.70
1468;DHT22;727;48.892;9.544;2023-06-10T06:16:31;25.80;70.80
1468;DHT22;727;48.892;9.544;2023-06-10T06:18:58;25.60;71.80
1468;DHT22;727;48.892;9.544;2023-06-10T06:21:25;25.30;72.90
1468;DHT22;727;48.892;9.544;2023-06-10T06:23:52;25.10;73.90
1468;DHT22;727;48.892;9.544;2023-06-10T06:26:19;25.10;74.00
1468;DHT22;727;48.892;9.544;2023-06-10T06:28:47;25.10;74.80
1468;DHT22;727;48.892;9.544;2023-06-10T06:31:14;25.00;74.70
1468;DHT22;727;48.892;9.544;2023-06-10T06:33:41;25.10;75.30
1468;DHT22;727;48.892;9.544;2023-06-10T06:36:07;25.30;74.60
1468;DHT22;727;48.892;9.544;2023-06-10T06:38:36;25.50;73.90
1468;DHT22;727;48.892;9.544;2023-06-10T06:41:02;25.70;73.60
1468;DHT22;727;48.892;9.544;2023-06-10T06:43:31;25.60;74.10
1468;DHT22;727;48.892;9.544;2023-06-10T06:46:00;25.80;73.40
1468;DHT22;727;48.892;9.544;2023-06-10T06:48:26;25.80;73.40
1468;DHT22;727;48.892;9.544;2023-06-10T06:50:53;26.10;71.90
1468;DHT22;727;48.892;9.544;2023-06-10T06:53:34;26.00;70.70
1468;DHT22;727;48.892;9.544;2023-06-10T06:56:02;25.90;70.30
1468;DHT22;727;48.892;9.544;2023-06-10T06:58:28;25.80;70.80
1468;DHT22;727;48.892;9.544;2023-06-10T07:00:55;25.80;70.20
1468;DHT22;727;48.892;9.544;2023-06-10T07:03:24;25.90;70.60
1468;DHT22;727;48.892;9.544;2023-06-10T07:05:51;26.00;70.00
1468;DHT22;727;48.892;9.544;2023-06-10T07:08:18;26.00;70.40
1468;DHT22;727;48.892;9.544;2023-06-10T07:10:45;26.20;69.50
1468;DHT22;727;48.892;9.544;2023-06-10T07:13:12;26.60;69.30
1468;DHT22;727;48.892;9.544;2023-06-10T07:15:39;26.60;68.80
1468;DHT22;727;48.892;9.544;2023-06-10T07:18:06;26.80;68.30
1468;DHT22;727;48.892;9.544;2023-06-10T07:20:34;26.80;68.50
1468;DHT22;727;48.892;9.544;2023-06-10T07:23:02;26.70;67.80
1468;DHT22;727;48.892;9.544;2023-06-10T07:25:28;26.90;68.90
1468;DHT22;727;48.892;9.544;2023-06-10T07:27:55;27.10;68.40
1468;DHT22;727;48.892;9.544;2023-06-10T07:30:22;27.00;68.50
1468;DHT22;727;48.892;9.544;2023-06-10T07:32:49;26.90;67.70
1468;DHT22;727;48.892;9.544;2023-06-10T07:35:16;26.80;68.50
1468;DHT22;727;48.892;9.544;2023-06-10T07:37:46;26.80;68.40
1468;DHT22;727;48.892;9.544;2023-06-10T07:40:13;26.80;67.90
1468;DHT22;727;48.892;9.544;2023-06-10T07:42:40;26.90;67.30
1468;DHT22;727;48.892;9.544;2023-06-10T07:45:07;26.90;67.60
1468;DHT22;727;48.892;9.544;2023-06-10T07:47:34;27.10;67.20
1468;DHT22;727;48.892;9.544;2023-06-10T07:50:01;27.30;66.40
1468;DHT22;727;48.892;9.544;2023-06-10T07:52:28;27.20;66.60
1468;DHT22;727;48.892;9.544;2023-06-10T07:54:58;27.20;66.40
1468;DHT22;727;48.892;9.544;2023-06-10T07:57:25;27.20;66.70
1468;DHT22;727;48.892;9.544;2023-06-10T07:59:52;27.10;66.90
1468;DHT22;727;48.892;9.544;2023-06-10T08:02:20;27.20;66.80
1468;DHT22;727;48.892;9.544;2023-06-10T08:04:47;27.20;65.70
1468;DHT22;727;48.892;9.544;2023-06-10T08:07:13;27.30;66.10
1468;DHT22;727;48.892;9.544;2023-06-10T08:09:40;27.40;66.10
1468;DHT22;727;48.892;9.544;2023-06-10T08:12:09;27.60;64.70
1468;DHT22;727;48.892;9.544;2023-06-10T08:14:36;27.70;64.70
1468;DHT22;727;48.892;9.544;2023-06-10T08:17:04;28.10;65.10
1468;DHT22;727;48.892;9.544;2023-06-10T08:19:31;27.80;63.80
1468;DHT22;727;48.892;9.544;2023-06-10T08:21:58;28.20;63.40
1468;DHT22;727;48.892;9.544;2023-06-10T08:24:25;28.60;61.20
1468;DHT22;727;48.892;9.544;2023-06-10T08:26:53;28.60;60.50
1468;DHT22;727;48.892;9.544;2023-06-10T08:29:22;28.50;60.10
1468;DHT22;727;48.892;9.544;2023-06-10T08:31:48;28.40;60.70
1468;DHT22;727;48.892;9.544;2023-06-10T08:34:15;28.50;61.50
1468;DHT22;727;48.892;9.544;2023-06-10T08:36:43;28.20;60.20
1468;DHT22;727;48.892;9.544;2023-06-10T08:42:34;28.30;60.10
1468;DHT22;727;48.892;9.544;2023-06-10T08:45:07;28.40;59.30
1468;DHT22;727;48.892;9.544;2023-06-10T08:47:39;28.60;59.30
1468;DHT22;727;48.892;9.544;2023-06-10T08:50:08;29.00;59.40
1468;DHT22;727;48.892;9.544;2023-06-10T08:52:37;29.20;59.60
1468;DHT22;727;48.892;9.544;2023-06-10T08:55:10;29.40;58.90
1468;DHT22;727;48.892;9.544;2023-06-10T08:57:37;29.40;58.60
1468;DHT22;727;48.892;9.544;2023-06-10T09:00:07;28.70;59.10
1468;DHT22;727;48.892;9.544;2023-06-10T09:02:34;28.50;60.70
1468;DHT22;727;48.892;9.544;2023-06-10T09:05:02;28.50;60.80
1468;DHT22;727;48.892;9.544;2023-06-10T09:07:30;28.80;60.40
1468;DHT22;727;48.892;9.544;2023-06-10T09:10:01;29.30;58.90
1468;DHT22;727;48.892;9.544;2023-06-10T09:12:29;29.60;58.30
1468;DHT22;727;48.892;9.544;2023-06-10T09:14:56;29.40;58.30
1468;DHT22;727;48.892;9.544;2023-06-10T09:17:38;29.30;59.20
1468;DHT22;727;48.892;9.544;2023-06-10T09:20:07;29.50;57.70
1468;DHT22;727;48.892;9.544;2023-06-10T09:22:43;29.60;58.30
1468;DHT22;727;48.892;9.544;2023-06-10T09:31:36;30.30;57.00
1468;DHT22;727;48.892;9.544;2023-06-10T09:34:10;30.60;55.50
1468;DHT22;727;48.892;9.544;2023-06-10T09:36:37;30.20;56.70
1468;DHT22;727;48.892;9.544;2023-06-10T10:33:33;30.80;55.00
1468;DHT22;727;48.892;9.544;2023-06-10T10:36:03;29.90;56.60
1468;DHT22;727;48.892;9.544;2023-06-10T10:38:31;30.30;56.30
1468;DHT22;727;48.892;9.544;2023-06-10T10:40:59;30.50;54.30
1468;DHT22;727;48.892;9.544;2023-06-10T10:43:28;30.60;53.30
1468;DHT22;727;48.892;9.544;2023-06-10T10:45:59;30.50;53.30
1468;DHT22;727;48.892;9.544;2023-06-10T10:48:34;30.60;53.20
1468;DHT22;727;48.892;9.544;2023-06-10T10:51:01;30.30;53.80
1468;DHT22;727;48.892;9.544;2023-06-10T10:53:29;30.30;54.90
1468;DHT22;727;48.892;9.544;2023-06-10T10:56:00;30.30;54.40
1468;DHT22;727;48.892;9.544;2023-06-10T10:58:31;30.20;54.30
1468;DHT22;727;48.892;9.544;2023-06-10T11:00:58;30.00;55.30
1468;DHT22;727;48.892;9.544;2023-06-10T11:03:30;29.90;56.20
1468;DHT22;727;48.892;9.544;2023-06-10T11:05:57;29.90;56.40
1468;DHT22;727;48.892;9.544;2023-06-10T11:08:46;30.00;55.70
1468;DHT22;727;48.892;9.544;2023-06-10T11:11:18;30.00;54.30
1468;DHT22;727;48.892;9.544;2023-06-10T11:13:58;30.10;54.30
1468;DHT22;727;48.892;9.544;2023-06-10T11:16:39;30.50;53.70
1468;DHT22;727;48.892;9.544;2023-06-10T11:19:08;30.50;53.40
1468;DHT22;727;48.892;9.544;2023-06-10T11:21:57;30.90;53.70
1468;DHT22;727;48.892;9.544;2023-06-10T11:24:25;31.80;52.10
1468;DHT22;727;48.892;9.544;2023-06-10T11:26:52;32.30;51.20
1468;DHT22;727;48.892;9.544;2023-06-10T11:29:19;31.70;50.80
1468;DHT22;727;48.892;9.544;2023-06-10T11:31:50;30.90;51.60
1468;DHT22;727;48.892;9.544;2023-06-10T11:34:24;30.40;52.90
1468;DHT22;727;48.892;9.544;2023-06-10T11:36:53;29.90;53.80
1468;DHT22;727;48.892;9.544;2023-06-10T11:39:21;29.60;53.90
1468;DHT22;727;48.892;9.544;2023-06-10T11:41:52;29.80;53.40
1468;DHT22;727;48.892;9.544;2023-06-10T11:44:19;30.40;52.80
1468;DHT22;727;48.892;9.544;2023-06-10T11:46:48;30.20;52.30
1468;DHT22;727;48.892;9.544;2023-06-10T11:49:15;29.90;52.80
1468;DHT22;727;48.892;9.544;2023-06-10T11:51:45;29.60;52.90
1468;DHT22;727;48.892;9.544;2023-06-10T11:54:17;30.10;53.30
1468;DHT22;727;48.892;9.544;2023-06-10T11:56:58;30.50;52.30
1468;DHT22;727;48.892;9.544;2023-06-10T11:59:27;30.70;51.50
1468;DHT22;727;48.892;9.544;2023-06-10T12:01:54;30.90;51.30
1468;DHT22;727;48.892;9.544;2023-06-10T12:04:21;30.60;52.50
1468;DHT22;727;48.892;9.544;2023-06-10T12:07:04;30.30;52.40
1468;DHT22;727;48.892;9.544;2023-06-10T12:09:35;30.00;52.80
1468;DHT22;727;48.892;9.544;2023-06-10T12:12:03;29.80;53.50
1468;DHT22;727;48.892;9.544;2023-06-10T13:10:03;31.80;49.80
1468;DHT22;727;48.892;9.544;2023-06-10T13:12:32;31.20;50.40
1468;DHT22;727;48.892;9.544;2023-06-10T13:15:00;30.80;51.50
1468;DHT22;727;48.892;9.544;2023-06-10T13:17:29;30.60;52.10
1468;DHT22;727;48.892;9.544;2023-06-10T13:19:59;30.90;52.20
1468;DHT22;727;48.892;9.544;2023-06-10T13:22:39;30.70;52.50
1468;DHT22;727;48.892;9.544;2023-06-10T13:30:27;29.20;54.50
1468;DHT22;727;48.892;9.544;2023-06-10T13:33:00;29.10;54.50
1468;DHT22;727;48.892;9.544;2023-06-10T13:35:30;29.30;55.30
1468;DHT22;727;48.892;9.544;2023-06-10T13:37:58;29.70;54.10
1468;DHT22;727;48.892;9.544;2023-06-10T13:40:25;30.00;53.70
1468;DHT22;727;48.892;9.544;2023-06-10T13:42:52;30.30;52.50
1468;DHT22;727;48.892;9.544;2023-06-10T13:45:24;30.60;52.70
1468;DHT22;727;48.892;9.544;2023-06-10T13:47:51;31.00;52.50
1468;DHT22;727;48.892;9.544;2023-06-10T13:50:18;31.00;52.50
1468;DHT22;727;48.892;9.544;2023-06-10T13:52:45;31.00;52.10
1468;DHT22;727;48.892;9.544;2023-06-10T13:55:12;30.90;52.10
1468;DHT22;727;48.892;9.544;2023-06-10T13:57:41;30.90;52.50
1468;DHT22;727;48.892;9.544;2023-06-10T14:00:08;31.00;51.70
1468;DHT22;727;48.892;9.544;2023-06-10T14:02:38;31.10;51.70
1468;DHT22;727;48.892;9.544;2023-06-10T14:05:06;31.00;50.80
1468;DHT22;727;48.892;9.544;2023-06-10T14:07:36;30.80;50.60
1468;DHT22;727;48.892;9.544;2023-06-10T14:10:07;30.90;50.60
1468;DHT22;727;48.892;9.544;2023-06-10T14:12:42;30.90;50.50
1468;DHT22;727;48.892;9.544;2023-06-10T14:15:23;30.80;50.70
1468;DHT22;727;48.892;9.544;2023-06-10T14:20:43;30.90;50.00
1468;DHT22;727;48.892;9.544;2023-06-10T14:23:11;31.00;50.20
1468;DHT22;727;48.892;9.544;2023-06-10T14:25:37;31.10;50.70
1468;DHT22;727;48.892;9.544;2023-06-10T14:28:05;30.90;50.60
1468;DHT22;727;48.892;9.544;2023-06-10T14:30:33;30.80;50.50
1468;DHT22;727;48.892;9.544;2023-06-10T14:33:00;30.60;51.50
1468;DHT22;727;48.892;9.544;2023-06-10T14:35:27;30.30;50.50
1468;DHT22;727;48.892;9.544;2023-06-10T14:37:59;29.80;51.90
1468;DHT22;727;48.892;9.544;2023-06-10T14:40:28;29.70;53.10
1468;DHT22;727;48.892;9.544;2023-06-10T14:42:59;29.90;52.20
1468;DHT22;727;48.892;9.544;2023-06-10T14:45:27;29.90;51.40
1468;DHT22;727;48.892;9.544;2023-06-10T14:47:55;30.00;51.40
1468;DHT22;727;48.892;9.544;2023-06-10T14:50:22;30.00;50.80
1468;DHT22;727;48.892;9.544;2023-06-10T14:52:49;30.10;51.40
1468;DHT22;727;48.892;9.544;2023-06-10T14:55:21;30.30;52.50
1468;DHT22;727;48.892;9.544;2023-06-10T14:58:03;30.40;51.80
1468;DHT22;727;48.892;9.544;2023-06-10T15:00:30;30.50;52.20
1468;DHT22;727;48.892;9.544;2023-06-10T15:02:57;30.60;52.90
1468;DHT22;727;48.892;9.544;2023-06-10T15:05:23;30.30;52.50
1468;DHT22;727;48.892;9.544;2023-06-10T15:07:51;30.20;50.90
1468;DHT22;727;48.892;9.544;2023-06-10T15:10:21;29.90;50.70
1468;DHT22;727;48.892;9.544;2023-06-10T15:12:49;29.50;50.40
1468;DHT22;727;48.892;9.544;2023-06-10T15:15:21;29.10;51.00
1468;DHT22;727;48.892;9.544;2023-06-10T15:17:48;28.80;51.80
1468;DHT22;727;48.892;9.544;2023-06-10T15:20:19;29.00;52.10
1468;DHT22;727;48.892;9.544;2023-06-10T15:22:46;29.40;52.50
1468;DHT22;727;48.892;9.544;2023-06-10T15:25:14;29.80;52.10
1468;DHT22;727;48.892;9.544;2023-06-10T15:27:45;29.90;50.50
1468;DHT22;727;48.892;9.544;2023-06-10T15:30:12;30.00;50.90
1468;DHT22;727;48.892;9.544;2023-06-10T15:32:39;30.00;51.10
1468;DHT22;727;48.892;9.544;2023-06-10T15:35:07;30.00;51.30
1468;DHT22;727;48.892;9.544;2023-06-10T15:37:34;30.00;51.50
1468;DHT22;727;48.892;9.544;2023-06-10T15:40:01;29.90;51.90
1468;DHT22;727;48.892;9.544;2023-06-10T15:42:28;29.90;52.20
1468;DHT22;727;48.892;9.544;2023-06-10T15:44:56;29.90;51.60
1468;DHT22;727;48.892;9.544;2023-06-10T15:47:23;30.00;51.70
1468;DHT22;727;48.892;9.544;2023-06-10T15:49:50;29.90;51.90
1468;DHT22;727;48.892;9.544;2023-06-10T15:52:17;29.90;52.40
1468;DHT22;727;48.892;9.544;2023-06-10T15:54:45;29.90;52.00
1468;DHT22;727;48.892;9.544;2023-06-10T15:57:16;29.70;52.50
1468;DHT22;727;48.892;9.544;2023-06-10T15:59:50;29.50;53.30
1468;DHT22;727;48.892;9.544;2023-06-10T16:02:20;29.50;53.30
1468;DHT22;727;48.892;9.544;2023-06-10T16:04:47;29.50;52.90
1468;DHT22;727;48.892;9.544;2023-06-10T16:07:14;29.50;52.70
1468;DHT22;727;48.892;9.544;2023-06-10T16:12:22;29.60;52.70
1468;DHT22;727;48.892;9.544;2023-06-10T16:17:51;29.50;52.60
1468;DHT22;727;48.892;9.544;2023-06-10T16:20:20;29.30;53.80
1468;DHT22;727;48.892;9.544;2023-06-10T16:25:44;29.50;53.40
1468;DHT22;727;48.892;9.544;2023-06-10T16:28:11;29.50;52.90
1468;DHT22;727;48.892;9.544;2023-06-10T16:30:38;29.40;53.60
1468;DHT22;727;48.892;9.544;2023-06-10T16:33:07;29.20;54.10
1468;DHT22;727;48.892;9.544;2023-06-10T16:35:35;28.80;54.30
1468;DHT22;727;48.892;9.544;2023-06-10T16:38:04;28.50;55.20
1468;DHT22;727;48.892;9.544;2023-06-10T16:40:32;28.20;55.30
1468;DHT22;727;48.892;9.544;2023-06-10T16:43:05;27.90;55.90
1468;DHT22;727;48.892;9.544;2023-06-10T16:48:57;27.50;56.90
1468;DHT22;727;48.892;9.544;2023-06-10T16:57:26;27.20;58.70
1468;DHT22;727;48.892;9.544;2023-06-10T16:59:53;27.10;58.90
1468;DHT22;727;48.892;9.544;2023-06-10T17:02:21;27.00;59.00
1468;DHT22;727;48.892;9.544;2023-06-10T17:05:13;26.90;60.40
1468;DHT22;727;48.892;9.544;2023-06-10T17:07:49;26.90;59.40
1468;DHT22;727;48.892;9.544;2023-06-10T17:10:16;26.90;59.30
1468;DHT22;727;48.892;9.544;2023-06-10T17:12:43;27.00;59.60
1468;DHT22;727;48.892;9.544;2023-06-10T17:15:10;27.00;59.50
1468;DHT22;727;48.892;9.544;2023-06-10T17:17:52;26.90;60.40
1468;DHT22;727;48.892;9.544;2023-06-10T17:20:38;26.80;59.60
1468;DHT22;727;48.892;9.544;2023-06-10T17:23:07;26.90;58.80
1468;DHT22;727;48.892;9.544;2023-06-10T17:28:10;26.80;59.10
1468;DHT22;727;48.892;9.544;2023-06-10T17:43:46;26.20;61.70
1468;DHT22;727;48.892;9.544;2023-06-10T19:10:42;24.00;69.40
1468;DHT22;727;48.892;9.544;2023-06-10T19:18:39;23.70;71.00
1468;DHT22;727;48.892;9.544;2023-06-10T19:21:06;23.50;71.60
1468;DHT22;727;48.892;9.544;2023-06-10T19:23:33;23.40;72.30
1468;DHT22;727;48.892;9.544;2023-06-10T19:26:04;23.30;73.70
1468;DHT22;727;48.892;9.544;2023-06-10T19:28:31;23.10;73.40
1468;DHT22;727;48.892;9.544;2023-06-10T19:30:58;22.90;74.10
1468;DHT22;727;48.892;9.544;2023-06-10T19:33:35;22.80;74.70
1468;DHT22;727;48.892;9.544;2023-06-10T19:38:37;22.60;75.90
1468;DHT22;727;48.892;9.544;2023-06-10T19:41:31;22.50;76.60
1468;DHT22;727;48.892;9.544;2023-06-10T19:44:00;22.30;76.80
1468;DHT22;727;48.892;9.544;2023-06-10T19:46:36;22.20;77.50
1468;DHT22;727;48.892;9.544;2023-06-10T19:49:21;22.00;77.60
1468;DHT22;727;48.892;9.544;2023-06-10T19:52:26;22.00;78.60
1468;DHT22;727;48.892;9.544;2023-06-10T19:55:11;21.90;79.20
1468;DHT22;727;48.892;9.544;2023-06-10T20:04:13;21.60;80.30
1468;DHT22;727;48.892;9.544;2023-06-10T20:06:40;21.60;81.00
1468;DHT22;727;48.892;9.544;2023-06-10T20:09:08;21.60;81.10
1468;DHT22;727;48.892;9.544;2023-06-10T20:11:35;21.50;81.40
1468;DHT22;727;48.892;9.544;2023-06-10T20:14:02;21.50;81.80
1468;DHT22;727;48.892;9.544;2023-06-10T20:16:29;21.50;81.40
1468;DHT22;727;48.892;9.544;2023-06-10T20:19:11;21.50;82.50
1468;DHT22;727;48.892;9.544;2023-06-10T20:21:38;21.50;82.90
1468;DHT22;727;48.892;9.544;2023-06-10T20:24:08;21.50;83.60
1468;DHT22;727;48.892;9.544;2023-06-10T20:26:41;21.40;83.30
1468;DHT22;727;48.892;9.544;2023-06-10T20:29:08;21.50;83.60
1468;DHT22;727;48.892;9.544;2023-06-10T20:31:39;21.40;84.00
1468;DHT22;727;48.892;9.544;2023-06-10T21:15:14;20.30;90.10
1468;DHT22;727;48.892;9.544;2023-06-10T21:23:36;20.00;90.90
1468;DHT22;727;48.892;9.544;2023-06-10T21:26:05;20.00;91.20
1468;DHT22;727;48.892;9.544;2023-06-10T21:28:37;19.80;91.70
1468;DHT22;727;48.892;9.544;2023-06-10T21:31:18;19.70;91.90
1468;DHT22;727;48.892;9.544;2023-06-10T21:36:25;19.50;92.70
1468;DHT22;727;48.892;9.544;2023-06-10T21:39:26;19.50;93.10